Jun Ma 2 — BSPI — position and weather

sailwx.info

Track history (hours):
 
Tides and Currents Weather Stations Pressure Air Temp Water Temp Dewpoint Dewpoint Depression Visibility Wind Speed Wind Dir Waves Ship Positions

Jun Ma 2

Last reported at 2018-Jun-25 02:00 UTC. Time now 2018-Jun-25 02:06 UTC.
Position N 05°36' W 000°01'.

Length 87 m.

MMSI: 412052630.

Date/timePositionNaut miles runAvg speedWind from/ knotsBaromVisibWave heightAir tempDewpointWater temp
2018-Jun-25 02:00N 05°36' W 000°01'0 0.0
2018-Jun-25 01:30N 05°36' W 000°01'0 0.0
2018-Jun-25 01:00N 05°36' W 000°01'0 0.8
2018-Jun-25 00:30N 05°37' W 000°00'4 9.0
2018-Jun-25 00:00N 05°37' E 000°04'5 9.3
2018-Jun-24 23:30N 05°39' E 000°09'1 2.2
2018-Jun-24 23:00N 05°39' E 000°10'0 0.8
2018-Jun-24 22:30N 05°39' E 000°09'0 0.6
2018-Jun-24 22:00N 05°39' E 000°09'1 1.6
2018-Jun-24 21:29N 05°39' E 000°10'1 2.6
2018-Jun-24 21:00N 05°39' E 000°09'611.7
2018-Jun-24 20:30N 05°37' E 000°04'4 8.6
2018-Jun-24 20:00N 05°37' W 000°01'0 0.1
2018-Jun-24 19:30N 05°36' W 000°01'0 0.0
2018-Jun-24 19:00N 05°36' W 000°01'0 0.0
2018-Jun-24 18:30N 05°37' W 000°01'0 0.0
2018-Jun-24 18:00N 05°36' W 000°01'1 2.1
2018-Jun-24 17:30N 05°37' E 000°00'510.0
2018-Jun-24 17:00N 05°37' E 000°05'5 9.9
2018-Jun-24 16:30N 05°39' E 000°10'2 3.3
2018-Jun-24 16:00N 05°40' E 000°11'0 1.0
2018-Jun-24 15:30N 05°41' E 000°11'1 1.8
2018-Jun-24 15:00N 05°40' E 000°11'1 1.8
2018-Jun-24 14:30N 05°39' E 000°10'4 8.7
2018-Jun-24 14:00N 05°37' E 000°06'510.9
2018-Jun-24 13:30N 05°37' E 000°01'1 2.8
2018-Jun-24 13:00N 05°36' W 000°01'0 0.0
2018-Jun-24 12:30N 05°36' W 000°01'0 0.0
2018-Jun-24 12:00N 05°36' W 000°01'0 0.0
2018-Jun-24 11:30N 05°36' W 000°01'0 0.0
2018-Jun-24 11:00N 05°36' W 000°01'0 0.0
2018-Jun-24 10:30N 05°36' W 000°01'3 5.2
2018-Jun-24 10:00N 05°37' E 000°02'510.0
2018-Jun-24 09:30N 05°38' E 000°07'3 6.5
2018-Jun-24 09:00N 05°40' E 000°09'1 1.5
2018-Jun-24 08:30N 05°40' E 000°10'0 0.9
2018-Jun-24 08:00N 05°40' E 000°11'1 1.2
2018-Jun-24 07:30N 05°40' E 000°10'1 1.0
2018-Jun-24 07:00N 05°40' E 000°09'2 4.7
2018-Jun-24 06:30N 05°38' E 000°08'510.5
2018-Jun-24 06:00N 05°37' E 000°02'3 6.5
2018-Jun-24 05:30N 05°36' W 000°01'0 0.0
2018-Jun-24 05:00N 05°36' W 000°01'0 0.0
2018-Jun-24 04:30N 05°36' W 000°01'0 0.0
2018-Jun-24 04:00N 05°36' W 000°01'0 0.0
2018-Jun-24 03:30N 05°36' W 000°01'0 0.0
2018-Jun-24 03:00N 05°36' W 000°01'0 0.0
2018-Jun-24 02:30N 05°36' W 000°01'0 0.0
2018-Jun-24 02:00N 05°36' W 000°01'1 2.7
2018-Jun-24 01:30N 05°37' E 000°01'5 9.7
2018-Jun-24 01:00N 05°37' E 000°05'510.3
2018-Jun-24 00:30N 05°39' E 000°10'1 2.0
2018-Jun-24 00:00N 05°40' E 000°11'1 1.0
2018-Jun-23 23:29N 05°40' E 000°10'0 0.4
2018-Jun-23 22:59N 05°40' E 000°10'1 1.5
2018-Jun-23 22:30N 05°40' E 000°10'1 1.5
2018-Jun-23 22:00N 05°39' E 000°09'4 8.6
2018-Jun-23 21:30N 05°37' E 000°05'510.6
2018-Jun-23 21:00N 05°37' W 000°00'1 1.2
2018-Jun-23 20:30N 05°36' W 000°01'0 0.0
2018-Jun-23 20:00N 05°36' W 000°01'0 0.0
2018-Jun-23 19:30N 05°36' W 000°01'0 0.0
2018-Jun-23 19:00N 05°36' W 000°01'0 0.0
2018-Jun-23 18:30N 05°36' W 000°01'1 1.3
2018-Jun-23 18:00N 05°37' W 000°00'5 9.5
2018-Jun-23 17:30N 05°37' E 000°05'5 9.6
2018-Jun-23 17:00N 05°39' E 000°09'1 2.3
2018-Jun-23 16:30N 05°40' E 000°10'1 1.4
2018-Jun-23 16:00N 05°40' E 000°11'1 1.3
2018-Jun-23 15:30N 05°41' E 000°11'1 1.6
2018-Jun-23 15:00N 05°40' E 000°10'1 2.1
2018-Jun-23 14:30N 05°39' E 000°10'611.4
2018-Jun-23 14:00N 05°37' E 000°05'510.2
2018-Jun-23 13:30N 05°37' W 000°00'0 0.7
2018-Jun-23 13:00N 05°36' W 000°01'0 0.0
2018-Jun-23 12:30N 05°36' W 000°01'0 0.0
2018-Jun-23 12:00N 05°36' W 000°01'0 0.0
2018-Jun-23 11:30N 05°36' W 000°01'0 0.0
2018-Jun-23 11:00N 05°36' W 000°01'0 0.9
2018-Jun-23 10:30N 05°37' W 000°00'4 9.1
2018-Jun-23 10:00N 05°37' E 000°04'5 9.4
2018-Jun-23 09:30N 05°39' E 000°09'2 3.4
2018-Jun-23 09:00N 05°40' E 000°10'1 1.7
2018-Jun-23 08:30N 05°39' E 000°09'1 1.5
2018-Jun-23 08:00N 05°40' E 000°10'0 0.4
2018-Jun-23 07:30N 05°40' E 000°10'1 1.5
2018-Jun-23 07:00N 05°39' E 000°09'611.4
2018-Jun-23 06:30N 05°37' E 000°04'5 9.3
2018-Jun-23 06:01N 05°37' W 000°01'0 0.1
2018-Jun-23 05:30N 05°36' W 000°01'0 0.0
2018-Jun-23 05:00N 05°36' W 000°01'0 0.0
2018-Jun-23 04:30N 05°36' W 000°01'0 0.0
2018-Jun-23 04:00N 05°36' W 000°01'0 0.0
2018-Jun-23 03:30N 05°36' W 000°01'2 3.9
2018-Jun-23 03:00N 05°37' E 000°01'5 9.6
2018-Jun-23 02:30N 05°37' E 000°06'5 9.5
2018-Jun-23 02:00N 05°40' E 000°10'1 2.9
2018-Jun-23 01:30N 05°41' E 000°11'1 1.7
2018-Jun-23 01:00N 05°40' E 000°11'1 1.1
2018-Jun-23 00:30N 05°40' E 000°11'1 1.5
2018-Jun-23 00:00N 05°40' E 000°10'1 1.9
2018-Jun-22 23:30N 05°39' E 000°09'611.2
2018-Jun-22 23:00N 05°37' E 000°04'5 9.6
2018-Jun-22 22:31N 05°37' W 000°01'0 0.2
2018-Jun-22 22:00N 05°36' W 000°01'0 0.0
2018-Jun-22 21:30N 05°36' W 000°01'0 0.0
2018-Jun-22 21:00N 05°36' W 000°01'0 0.0
2018-Jun-22 20:30N 05°36' W 000°01'0 0.0
2018-Jun-22 20:00N 05°36' W 000°01'0 0.1
2018-Jun-22 19:30N 05°37' W 000°01'4 8.5
2018-Jun-22 19:00N 05°37' E 000°04'5 9.6
2018-Jun-22 18:29N 05°39' E 000°08'2 3.6
2018-Jun-22 18:00N 05°40' E 000°10'1 1.5
2018-Jun-22 17:30N 05°40' E 000°11'0 0.3
2018-Jun-22 17:00N 05°40' E 000°11'1 1.4
2018-Jun-22 16:30N 05°40' E 000°10'3 5.3
2018-Jun-22 16:00N 05°39' E 000°08'611.1
2018-Jun-22 15:30N 05°38' E 000°02'3 6.0
2018-Jun-22 15:00N 05°36' W 000°01'0 0.0
2018-Jun-22 14:30N 05°36' W 000°01'0 0.0
2018-Jun-22 14:00N 05°36' W 000°01'0 0.0
2018-Jun-22 13:30N 05°37' W 000°01'0 0.0
2018-Jun-22 13:00N 05°36' W 000°01'0 0.0
2018-Jun-22 12:30N 05°36' W 000°01'3 5.1
2018-Jun-22 12:00N 05°37' E 000°02'5 9.6
2018-Jun-22 11:30N 05°38' E 000°07'3 6.6
2018-Jun-22 11:00N 05°40' E 000°09'1 1.8
2018-Jun-22 10:30N 05°40' E 000°10'0 0.8
2018-Jun-22 10:00N 05°40' E 000°10'1 1.7
2018-Jun-22 09:30N 05°40' E 000°10'1 1.7
2018-Jun-22 09:00N 05°39' E 000°09'510.9
2018-Jun-22 08:30N 05°38' E 000°04'5 9.3
2018-Jun-22 08:01N 05°37' W 000°01'0 0.3
2018-Jun-22 07:30N 05°36' W 000°01'0 0.0
2018-Jun-22 07:00N 05°36' W 000°01'0 0.0
2018-Jun-22 06:30N 05°36' W 000°01'0 0.0
2018-Jun-22 06:00N 05°36' W 000°01'0 0.0
2018-Jun-22 05:30N 05°36' W 000°01'1 1.7
2018-Jun-22 05:00N 05°37' E 000°00'5 9.5
2018-Jun-22 04:30N 05°37' E 000°05'5 9.6
2018-Jun-22 04:00N 05°39' E 000°09'1 2.9
2018-Jun-22 03:30N 05°40' E 000°10'1 1.6
2018-Jun-22 03:01N 05°41' E 000°11'1 1.6
2018-Jun-22 02:30N 05°40' E 000°10'1 1.8
2018-Jun-22 02:00N 05°40' E 000°10'2 4.3
2018-Jun-22 01:30N 05°38' E 000°08'511.0
2018-Jun-22 01:00N 05°37' E 000°03'3 6.8
2018-Jun-22 00:30N 05°36' W 000°01'0 0.0
2018-Jun-22 00:00N 05°36' W 000°01'0 0.0
2018-Jun-21 23:30N 05°36' W 000°01'0 0.0
2018-Jun-21 23:00N 05°36' W 000°01'0 0.0
2018-Jun-21 22:30N 05°36' W 000°01'0 0.0
2018-Jun-21 22:00N 05°36' W 000°01'2 3.7
2018-Jun-21 21:30N 05°37' E 000°01'5 9.4
2018-Jun-21 21:00N 05°37' E 000°06'4 8.5
2018-Jun-21 20:30N 05°39' E 000°09'1 1.5
2018-Jun-21 20:00N 05°40' E 000°10'1 1.4
2018-Jun-21 19:30N 05°40' E 000°11'0 1.0
2018-Jun-21 19:00N 05°40' E 000°10'1 1.3
2018-Jun-21 18:30N 05°40' E 000°10'2 4.5
2018-Jun-21 17:58N 05°38' E 000°08'511.2
2018-Jun-21 17:30N 05°38' E 000°02'3 6.8
2018-Jun-21 17:00N 05°36' W 000°01'0 0.0
2018-Jun-21 16:30N 05°36' W 000°01'0 0.0
2018-Jun-21 16:00N 05°36' W 000°01'0 0.0
2018-Jun-21 15:30N 05°36' W 000°01'0 0.0
2018-Jun-21 15:00N 05°36' W 000°01'0 0.0
2018-Jun-21 14:30N 05°36' W 000°01'1 2.3
2018-Jun-21 14:00N 05°37' E 000°00'5 9.8
2018-Jun-21 13:30N 05°37' E 000°05'5 9.7
2018-Jun-21 13:00N 05°39' E 000°10'1 2.5
2018-Jun-21 12:30N 05°40' E 000°11'1 1.6
2018-Jun-21 12:01N 05°40' E 000°11'1 1.9
2018-Jun-21 11:29N 05°40' E 000°11'1 1.7
2018-Jun-21 11:00N 05°40' E 000°10'1 2.2
2018-Jun-21 10:30N 05°39' E 000°09'611.7
2018-Jun-21 10:00N 05°37' E 000°03'4 7.0
2018-Jun-21 09:30N 05°37' W 000°00'1 1.0
2018-Jun-21 09:00N 05°36' W 000°01'0 0.0
2018-Jun-21 08:30N 05°36' W 000°01'0 0.0
2018-Jun-21 08:00N 05°36' W 000°01'0 0.0
2018-Jun-21 07:30N 05°36' W 000°01'0 0.0
2018-Jun-21 07:00N 05°36' W 000°01'0 0.1
2018-Jun-21 06:30N 05°37' W 000°01'4 8.5
2018-Jun-21 06:00N 05°37' E 000°03'5 9.5
2018-Jun-21 05:30N 05°38' E 000°08'2 4.4
2018-Jun-21 05:00N 05°39' E 000°10'1 1.5
2018-Jun-21 04:30N 05°40' E 000°11'0 0.9
2018-Jun-21 04:00N 05°40' E 000°11'1 1.4
2018-Jun-21 03:30N 05°40' E 000°10'1 1.7
2018-Jun-21 03:00N 05°39' E 000°09'4 7.4
2018-Jun-21 02:30N 05°38' E 000°06'611.2
2018-Jun-21 02:00N 05°37' E 000°01'2 3.1
2018-Jun-21 01:30N 05°36' W 000°01'0 0.0
2018-Jun-21 01:00N 05°37' W 000°01'0 0.0
2018-Jun-21 00:30N 05°36' W 000°01'0 0.0
2018-Jun-21 00:00N 05°36' W 000°01'0 0.0
2018-Jun-20 23:30N 05°36' W 000°01'0 0.0
2018-Jun-20 23:00N 05°36' W 000°01'3 5.2
2018-Jun-20 22:30N 05°37' E 000°02'5 9.1
2018-Jun-20 22:00N 05°37' E 000°06'4 7.9
2018-Jun-20 21:30N 05°40' E 000°10'1 1.6
2018-Jun-20 21:00N 05°40' E 000°10'0 0.9
2018-Jun-20 20:30N 05°40' E 000°11'1 1.8
2018-Jun-20 20:00N 05°40' E 000°10'2 4.3
2018-Jun-20 19:30N 05°38' E 000°08'611.9
2018-Jun-20 19:00N 05°36' E 000°03'2 3.2
2018-Jun-20 18:30N 05°36' E 000°01'0 0.0
2018-Jun-20 18:00N 05°36' E 000°01'0 0.0
2018-Jun-20 17:30N 05°36' E 000°01'0 0.0
2018-Jun-20 17:00N 05°36' E 000°01'0 0.0
2018-Jun-20 16:30N 05°36' E 000°01'0 0.0
2018-Jun-20 15:57N 05°36' E 000°01'0 0.0
2018-Jun-20 15:30N 05°36' E 000°01'0 0.0
2018-Jun-20 15:00N 05°36' E 000°01'0 0.0
2018-Jun-20 14:30N 05°36' E 000°01'0 0.0
2018-Jun-20 14:00N 05°36' E 000°01'0 0.0
2018-Jun-20 13:30N 05°36' E 000°01'0 0.0
2018-Jun-20 13:00N 05°36' E 000°01'0 0.0
2018-Jun-20 12:30N 05°36' E 000°01'0 0.0
2018-Jun-20 12:00N 05°36' E 000°01'0 0.0
2018-Jun-20 11:30N 05°36' E 000°01'0 0.0
2018-Jun-20 10:57N 05°36' E 000°01'0 0.0
2018-Jun-20 10:30N 05°35' E 000°01'0 0.0
2018-Jun-20 10:00N 05°35' E 000°01'0 0.0
2018-Jun-20 09:30N 05°35' E 000°01'0 0.1
2018-Jun-20 09:00N 05°35' E 000°01'0 0.1
2018-Jun-20 08:30N 05°35' E 000°01'0 0.0
2018-Jun-20 08:00N 05°35' E 000°01'0 0.0
2018-Jun-20 07:30N 05°35' E 000°01'0 0.0
2018-Jun-20 07:00N 05°35' E 000°01'0 0.6
2018-Jun-20 06:29N 05°36' E 000°01'2 3.8
2018-Jun-20 06:00N 05°37' W 000°01'0 0.1
2018-Jun-20 05:30N 05°36' W 000°01'0 0.0
2018-Jun-20 05:00N 05°36' W 000°01'0 0.0
2018-Jun-20 04:30N 05°36' W 000°01'0 0.0
2018-Jun-20 04:00N 05°36' W 000°01'0 0.0
2018-Jun-20 03:30N 05°36' W 000°01'1 1.6
2018-Jun-20 03:00N 05°37' W 000°00'4 9.0
2018-Jun-20 02:30N 05°37' E 000°04'4 8.6
2018-Jun-20 02:00N 05°39' E 000°09'2 3.7
2018-Jun-20 01:29N 05°40' E 000°10'1 1.6
2018-Jun-20 01:00N 05°40' E 000°11'1 1.3
2018-Jun-20 00:31N 05°40' E 000°11'1 1.9
2018-Jun-20 00:00N 05°40' E 000°11'1 2.6
2018-Jun-19 23:30N 05°39' E 000°09'3 6.5
2018-Jun-19 23:00N 05°38' E 000°07'612.1
2018-Jun-19 22:30N 05°37' E 000°01'1 2.8
2018-Jun-19 22:00N 05°36' W 000°01'0 0.0
2018-Jun-19 21:30N 05°36' W 000°01'0 0.0
2018-Jun-19 21:00N 05°36' W 000°01'0 0.0
2018-Jun-19 20:30N 05°36' W 000°01'0 0.0
2018-Jun-19 20:00N 05°36' W 000°01'0 0.0
2018-Jun-19 19:30N 05°36' W 000°01'0 0.0
2018-Jun-19 19:00N 05°36' W 000°01'3 5.3
2018-Jun-19 18:30N 05°37' E 000°02'4 8.3
2018-Jun-19 18:00N 05°38' E 000°06'4 8.1
2018-Jun-19 17:30N 05°39' E 000°10'1 1.4
2018-Jun-19 16:59N 05°40' E 000°10'0 0.9
2018-Jun-19 16:30N 05°40' E 000°11'1 1.3
2018-Jun-19 16:00N 05°40' E 000°11'0 0.8
2018-Jun-19 15:30N 05°40' E 000°11'1 2.1
2018-Jun-19 15:00N 05°40' E 000°10'3 5.2
2018-Jun-19 14:29N 05°38' E 000°08'611.9
2018-Jun-19 14:00N 05°37' E 000°02'3 5.7
2018-Jun-19 13:30N 05°36' W 000°01'0 0.0
2018-Jun-19 13:00N 05°36' W 000°01'0 0.0
2018-Jun-19 12:30N 05°36' W 000°01'0 0.0
2018-Jun-19 12:00N 05°36' W 000°01'0 0.0
2018-Jun-19 11:30N 05°36' W 000°01'0 0.0
2018-Jun-19 11:00N 05°36' W 000°01'1 1.9
2018-Jun-19 10:30N 05°37' E 000°00'5 9.1
2018-Jun-19 10:00N 05°37' E 000°05'4 8.9
2018-Jun-19 09:30N 05°39' E 000°09'2 3.0
2018-Jun-19 08:59N 05°40' E 000°10'1 1.4
2018-Jun-19 08:31N 05°40' E 000°11'1 1.6
2018-Jun-19 08:00N 05°40' E 000°10'1 1.7
2018-Jun-19 07:30N 05°39' E 000°09'0 0.8
2018-Jun-19 07:00N 05°39' E 000°10'0 0.1
2018-Jun-19 06:27N 05°40' E 000°10'0 0.0
2018-Jun-19 06:00N 05°40' E 000°10'0 0.0
2018-Jun-19 05:30N 05°40' E 000°10'0 0.0
2018-Jun-19 05:00N 05°40' E 000°10'0 0.0
2018-Jun-19 04:30N 05°39' E 000°10'0 0.0
2018-Jun-19 04:00N 05°39' E 000°10'0 0.0
2018-Jun-19 03:30N 05°40' E 000°10'0 0.0
2018-Jun-19 03:00N 05°40' E 000°10'0 0.0
2018-Jun-19 02:30N 05°39' E 000°10'0 0.0
2018-Jun-19 02:00N 05°39' E 000°10'0 0.0
2018-Jun-19 01:30N 05°40' E 000°10'3 5.9
2018-Jun-19 01:00N 05°38' E 000°07'611.9
2018-Jun-19 00:29N 05°37' E 000°01'2 3.6
2018-Jun-19 00:00N 05°37' W 000°01'0 0.0
2018-Jun-18 23:30N 05°37' W 000°01'0 0.0
2018-Jun-18 23:00N 05°37' W 000°01'0 0.0
2018-Jun-18 22:30N 05°37' W 000°01'0 0.0
2018-Jun-18 22:00N 05°37' W 000°01'0 0.1
2018-Jun-18 21:30N 05°37' W 000°01'0 0.1
2018-Jun-18 21:00N 05°37' W 000°01'0 0.1
2018-Jun-18 20:30N 05°36' W 000°01'3 5.6
2018-Jun-18 20:00N 05°38' E 000°02'4 8.1
2018-Jun-18 19:30N 05°38' E 000°06'4 7.5
2018-Jun-18 18:59N 05°39' E 000°09'0 1.0
2018-Jun-18 18:30N 05°39' E 000°10'0 1.0
2018-Jun-18 18:00N 05°40' E 000°10'1 1.2
2018-Jun-18 17:30N 05°40' E 000°11'0 0.5
2018-Jun-18 17:00N 05°40' E 000°11'1 2.0
2018-Jun-18 16:30N 05°40' E 000°10'5 9.6
2018-Jun-18 16:00N 05°37' E 000°05'611.7
2018-Jun-18 15:30N 05°37' W 000°00'0 0.9
2018-Jun-18 15:00N 05°36' W 000°01'0 0.0
2018-Jun-18 14:30N 05°36' W 000°01'0 0.0
2018-Jun-18 14:00N 05°37' W 000°01'0 0.0
2018-Jun-18 13:30N 05°36' W 000°01'0 0.0
2018-Jun-18 13:00N 05°37' W 000°01'0 0.2
2018-Jun-18 12:30N 05°37' W 000°01'4 8.1
2018-Jun-18 12:00N 05°37' E 000°03'4 8.6
2018-Jun-18 11:30N 05°38' E 000°08'3 5.6
2018-Jun-18 11:00N 05°40' E 000°10'1 1.2
2018-Jun-18 10:30N 05°40' E 000°11'1 1.0
2018-Jun-18 10:00N 05°40' E 000°11'1 1.9
2018-Jun-18 09:30N 05°40' E 000°10'1 2.0
2018-Jun-18 09:00N 05°39' E 000°09'4 8.3
2018-Jun-18 08:30N 05°38' E 000°05'611.2
2018-Jun-18 08:00N 05°37' W 000°00'1 1.5
2018-Jun-18 07:30N 05°36' W 000°01'0 0.1
2018-Jun-18 07:00N 05°36' W 000°01'0 0.0
2018-Jun-18 06:30N 05°36' W 000°01'0 0.0
2018-Jun-18 06:00N 05°36' W 000°01'0 0.0
2018-Jun-18 05:30N 05°36' W 000°01'0 0.7
2018-Jun-18 05:00N 05°37' W 000°00'4 8.0
2018-Jun-18 04:30N 05°37' E 000°04'4 8.5
2018-Jun-18 04:01N 05°38' E 000°08'4 7.2
2018-Jun-18 03:30N 05°40' E 000°11'0 0.8
2018-Jun-18 03:00N 05°40' E 000°11'0 0.3
2018-Jun-18 02:30N 05°40' E 000°11'0 0.5
2018-Jun-18 02:00N 05°40' E 000°11'1 1.7
2018-Jun-18 01:30N 05°40' E 000°10'1 2.1
2018-Jun-18 01:00N 05°39' E 000°10'5 9.4
2018-Jun-18 00:30N 05°37' E 000°05'510.8
2018-Jun-18 00:00N 05°37' W 000°00'1 1.1
2018-Jun-17 23:30N 05°36' W 000°01'0 0.0
2018-Jun-17 23:00N 05°36' W 000°01'0 0.0
2018-Jun-17 22:30N 05°36' W 000°01'0 0.0
2018-Jun-17 22:00N 05°36' W 000°01'0 0.0
2018-Jun-17 21:30N 05°36' W 000°01'0 0.0
2018-Jun-17 21:00N 05°36' W 000°01'0 0.0
2018-Jun-17 20:30N 05°36' W 000°01'1 1.2
2018-Jun-17 19:59N 05°37' W 000°00'4 8.2
2018-Jun-17 19:30N 05°37' E 000°04'4 8.8
2018-Jun-17 19:00N 05°39' E 000°08'2 3.8
2018-Jun-17 18:29N 05°40' E 000°10'1 1.1
2018-Jun-17 18:00N 05°40' E 000°10'1 1.1
2018-Jun-17 17:30N 05°40' E 000°11'0 0.3
2018-Jun-17 17:00N 05°40' E 000°10'1 1.8
2018-Jun-17 16:30N 05°40' E 000°10'4 8.9
2018-Jun-17 16:00N 05°38' E 000°06'611.5
2018-Jun-17 15:30N 05°37' E 000°00'1 2.0
2018-Jun-17 15:00N 05°36' W 000°01'0 0.0
2018-Jun-17 14:30N 05°36' W 000°01'0 0.0
2018-Jun-17 14:00N 05°36' W 000°01'0 0.0
2018-Jun-17 13:30N 05°36' W 000°01'0 0.0
2018-Jun-17 13:00N 05°37' W 000°01'1 2.5
2018-Jun-17 12:30N 05°37' E 000°00'5 9.3
2018-Jun-17 12:00N 05°37' E 000°05'5 9.2
2018-Jun-17 11:30N 05°39' E 000°09'1 1.7
2018-Jun-17 11:00N 05°40' E 000°10'1 1.4
2018-Jun-17 10:29N 05°40' E 000°11'0 0.4
2018-Jun-17 10:00N 05°40' E 000°11'1 1.8
2018-Jun-17 09:29N 05°40' E 000°10'1 2.1
2018-Jun-17 09:00N 05°39' E 000°09'611.3
2018-Jun-17 08:30N 05°37' E 000°04'4 8.8
2018-Jun-17 08:00N 05°37' W 000°01'0 0.1
2018-Jun-17 07:30N 05°36' W 000°01'0 0.0
2018-Jun-17 07:00N 05°37' W 000°01'0 0.0
2018-Jun-17 06:30N 05°37' W 000°01'0 0.0
2018-Jun-17 06:00N 05°36' W 000°01'0 0.0
2018-Jun-17 05:30N 05°36' W 000°01'0 0.1
2018-Jun-17 05:00N 05°37' W 000°01'3 5.7
2018-Jun-17 04:30N 05°37' E 000°02'5 8.9
2018-Jun-17 03:59N 05°38' E 000°07'3 5.9
2018-Jun-17 03:28N 05°40' E 000°09'1 1.7
2018-Jun-17 03:00N 05°40' E 000°10'1 1.7
2018-Jun-17 02:29N 05°40' E 000°11'0 0.7
2018-Jun-17 02:00N 05°40' E 000°10'1 2.0
2018-Jun-17 01:30N 05°40' E 000°10'2 3.9
2018-Jun-17 00:59N 05°38' E 000°08'511.0
2018-Jun-17 00:30N 05°37' E 000°03'4 7.8
2018-Jun-17 00:00N 05°37' W 000°01'0 0.0
2018-Jun-16 23:30N 05°37' W 000°01'0 0.0
2018-Jun-16 23:00N 05°37' W 000°01'0 0.0
2018-Jun-16 22:30N 05°37' W 000°01'0 0.0
2018-Jun-16 22:00N 05°37' W 000°01'0 0.0
2018-Jun-16 21:30N 05°37' W 000°01'0 0.0
2018-Jun-16 21:00N 05°37' W 000°01'0 0.0
2018-Jun-16 20:30N 05°37' W 000°01'0 0.0
2018-Jun-16 20:00N 05°37' W 000°01'0 0.2
2018-Jun-16 19:30N 05°37' W 000°01'4 7.5
2018-Jun-16 19:00N 05°37' E 000°03'5 9.5
2018-Jun-16 18:30N 05°38' E 000°08'3 6.7
2018-Jun-16 18:00N 05°40' E 000°11'0 0.3
2018-Jun-16 17:30N 05°40' E 000°11'1 1.6
2018-Jun-16 17:00N 05°39' E 000°10'1 1.1
2018-Jun-16 16:30N 05°40' E 000°10'0 0.7
2018-Jun-16 16:00N 05°40' E 000°10'1 1.4
2018-Jun-16 15:30N 05°39' E 000°10'5 9.6
2018-Jun-16 15:00N 05°37' E 000°05'510.4
2018-Jun-16 14:30N 05°37' W 000°00'1 1.3
2018-Jun-16 14:00N 05°36' W 000°01'0 0.0
2018-Jun-16 13:30N 05°36' W 000°01'0 0.0
2018-Jun-16 13:00N 05°37' W 000°01'0 0.0
2018-Jun-16 12:30N 05°37' W 000°01'0 0.0
2018-Jun-16 12:00N 05°37' W 000°01'0 0.0
2018-Jun-16 11:30N 05°37' W 000°01'0 0.0
2018-Jun-16 11:00N 05°36' W 000°01'2 3.7
2018-Jun-16 10:30N 05°37' E 000°01'5 9.7
2018-Jun-16 10:00N 05°38' E 000°06'4 7.8
2018-Jun-16 09:30N 05°39' E 000°09'1 1.3
2018-Jun-16 09:00N 05°40' E 000°10'1 1.5
2018-Jun-16 08:30N 05°40' E 000°10'0 0.4
2018-Jun-16 08:00N 05°40' E 000°10'1 1.4
2018-Jun-16 07:30N 05°40' E 000°10'3 5.3
2018-Jun-16 06:59N 05°39' E 000°07'511.1
2018-Jun-16 06:30N 05°37' E 000°02'3 5.9
2018-Jun-16 06:00N 05°36' W 000°01'0 0.0
2018-Jun-16 05:30N 05°36' W 000°01'0 0.0
2018-Jun-16 05:00N 05°36' W 000°01'0 0.0
2018-Jun-16 04:30N 05°36' W 000°01'0 0.0
2018-Jun-16 04:00N 05°36' W 000°01'0 0.0
2018-Jun-16 03:30N 05°36' W 000°01'0 0.0
2018-Jun-16 03:00N 05°36' W 000°01'0 0.0
2018-Jun-16 02:30N 05°36' W 000°01'0 0.0
2018-Jun-16 02:00N 05°36' W 000°01'0 0.0
2018-Jun-16 01:30N 05°36' W 000°01'0 0.0
2018-Jun-16 01:00N 05°37' W 000°01'3 4.8
2018-Jun-16 00:29N 05°37' E 000°02'5 9.5
2018-Jun-16 00:00N 05°38' E 000°06'4 8.6
2018-Jun-15 23:30N 05°40' E 000°10'0 0.8
2018-Jun-15 22:59N 05°40' E 000°10'1 1.3
2018-Jun-15 22:30N 05°40' E 000°10'1 1.6
2018-Jun-15 22:01N 05°39' E 000°10'11 2.0
2018-Jun-15 16:37N 05°37' W 000°01'0 1.3
2018-Jun-15 16:30N 05°37' W 000°01'2 2.9
2018-Jun-15 15:59N 05°36' E 000°01'1 1.5
2018-Jun-15 15:30N 05°35' E 000°01'0 0.0
2018-Jun-15 15:00N 05°35' E 000°01'0 0.0
2018-Jun-15 14:30N 05°35' E 000°01'0 0.0
2018-Jun-15 14:00N 05°35' E 000°01'0 0.0
2018-Jun-15 13:30N 05°35' E 000°01'0 0.0
2018-Jun-15 13:00N 05°35' E 000°01'0 0.0
2018-Jun-15 12:30N 05°35' E 000°01'0 0.0
2018-Jun-15 12:00N 05°35' E 000°01'0 0.1
2018-Jun-15 11:30N 05°35' E 000°01'0 0.0
2018-Jun-15 11:00N 05°35' E 000°01'0 0.0
2018-Jun-15 10:30N 05°35' E 000°01'0 0.0
2018-Jun-15 10:00N 05°35' E 000°01'0 0.0
2018-Jun-15 09:30N 05°35' E 000°01'0 0.0
2018-Jun-15 09:00N 05°35' E 000°01'0 0.0
2018-Jun-15 08:30N 05°35' E 000°01'0 0.0
2018-Jun-15 08:00N 05°35' E 000°01'0 0.0
2018-Jun-15 07:30N 05°35' E 000°01'0 0.0
2018-Jun-15 07:00N 05°35' E 000°01'0 0.0
2018-Jun-15 06:24N 05°35' E 000°01'0 0.0
2018-Jun-15 06:00N 05°35' E 000°01'0 0.0
2018-Jun-15 05:30N 05°35' E 000°01'0 0.0
2018-Jun-15 05:00N 05°35' E 000°01'0 0.0
2018-Jun-15 04:30N 05°35' E 000°01'0 0.0
2018-Jun-15 04:00N 05°35' E 000°01'0 0.0
2018-Jun-15 03:30N 05°35' E 000°01'0 0.0
2018-Jun-15 03:00N 05°35' E 000°01'0 0.0
2018-Jun-15 02:30N 05°35' E 000°01'  
Track history (hours):
 
Tides and Currents Weather Stations Pressure Air Temp Water Temp Dewpoint Dewpoint Depression Visibility Wind Speed Wind Dir Waves Ship Positions

Jun Ma 2

Last reported at 2018-Jun-25 02:00 UTC. Time now 2018-Jun-25 02:06 UTC.
Position N 05°36' W 000°01'.

Length 87 m.

MMSI: 412052630.

Date/timePositionNaut miles runAvg speedWind from/ knotsBaromVisibWave heightAir tempDewpointWater temp
2018-Jun-25 02:00N 05°36' W 000°01'0 0.0
2018-Jun-25 01:30N 05°36' W 000°01'0 0.0
2018-Jun-25 01:00N 05°36' W 000°01'0 0.8
2018-Jun-25 00:30N 05°37' W 000°00'4 9.0
2018-Jun-25 00:00N 05°37' E 000°04'5 9.3
2018-Jun-24 23:30N 05°39' E 000°09'1 2.2
2018-Jun-24 23:00N 05°39' E 000°10'0 0.8
2018-Jun-24 22:30N 05°39' E 000°09'0 0.6
2018-Jun-24 22:00N 05°39' E 000°09'1 1.6
2018-Jun-24 21:29N 05°39' E 000°10'1 2.6
2018-Jun-24 21:00N 05°39' E 000°09'611.7
2018-Jun-24 20:30N 05°37' E 000°04'4 8.6
2018-Jun-24 20:00N 05°37' W 000°01'0 0.1
2018-Jun-24 19:30N 05°36' W 000°01'0 0.0
2018-Jun-24 19:00N 05°36' W 000°01'0 0.0
2018-Jun-24 18:30N 05°37' W 000°01'0 0.0
2018-Jun-24 18:00N 05°36' W 000°01'1 2.1
2018-Jun-24 17:30N 05°37' E 000°00'510.0
2018-Jun-24 17:00N 05°37' E 000°05'5 9.9
2018-Jun-24 16:30N 05°39' E 000°10'2 3.3
2018-Jun-24 16:00N 05°40' E 000°11'0 1.0
2018-Jun-24 15:30N 05°41' E 000°11'1 1.8
2018-Jun-24 15:00N 05°40' E 000°11'1 1.8
2018-Jun-24 14:30N 05°39' E 000°10'4 8.7
2018-Jun-24 14:00N 05°37' E 000°06'510.9
2018-Jun-24 13:30N 05°37' E 000°01'1 2.8
2018-Jun-24 13:00N 05°36' W 000°01'0 0.0
2018-Jun-24 12:30N 05°36' W 000°01'0 0.0
2018-Jun-24 12:00N 05°36' W 000°01'0 0.0
2018-Jun-24 11:30N 05°36' W 000°01'0 0.0
2018-Jun-24 11:00N 05°36' W 000°01'0 0.0
2018-Jun-24 10:30N 05°36' W 000°01'3 5.2
2018-Jun-24 10:00N 05°37' E 000°02'510.0
2018-Jun-24 09:30N 05°38' E 000°07'3 6.5
2018-Jun-24 09:00N 05°40' E 000°09'1 1.5
2018-Jun-24 08:30N 05°40' E 000°10'0 0.9
2018-Jun-24 08:00N 05°40' E 000°11'1 1.2
2018-Jun-24 07:30N 05°40' E 000°10'1 1.0
2018-Jun-24 07:00N 05°40' E 000°09'2 4.7
2018-Jun-24 06:30N 05°38' E 000°08'510.5
2018-Jun-24 06:00N 05°37' E 000°02'3 6.5
2018-Jun-24 05:30N 05°36' W 000°01'0 0.0
2018-Jun-24 05:00N 05°36' W 000°01'0 0.0
2018-Jun-24 04:30N 05°36' W 000°01'0 0.0
2018-Jun-24 04:00N 05°36' W 000°01'0 0.0
2018-Jun-24 03:30N 05°36' W 000°01'0 0.0
2018-Jun-24 03:00N 05°36' W 000°01'0 0.0
2018-Jun-24 02:30N 05°36' W 000°01'0 0.0
2018-Jun-24 02:00N 05°36' W 000°01'1 2.7
2018-Jun-24 01:30N 05°37' E 000°01'5 9.7
2018-Jun-24 01:00N 05°37' E 000°05'510.3
2018-Jun-24 00:30N 05°39' E 000°10'1 2.0
2018-Jun-24 00:00N 05°40' E 000°11'1 1.0
2018-Jun-23 23:29N 05°40' E 000°10'0 0.4
2018-Jun-23 22:59N 05°40' E 000°10'1 1.5
2018-Jun-23 22:30N 05°40' E 000°10'1 1.5
2018-Jun-23 22:00N 05°39' E 000°09'4 8.6
2018-Jun-23 21:30N 05°37' E 000°05'510.6
2018-Jun-23 21:00N 05°37' W 000°00'1 1.2
2018-Jun-23 20:30N 05°36' W 000°01'0 0.0
2018-Jun-23 20:00N 05°36' W 000°01'0 0.0
2018-Jun-23 19:30N 05°36' W 000°01'0 0.0
2018-Jun-23 19:00N 05°36' W 000°01'0 0.0
2018-Jun-23 18:30N 05°36' W 000°01'1 1.3
2018-Jun-23 18:00N 05°37' W 000°00'5 9.5
2018-Jun-23 17:30N 05°37' E 000°05'5 9.6
2018-Jun-23 17:00N 05°39' E 000°09'1 2.3
2018-Jun-23 16:30N 05°40' E 000°10'1 1.4
2018-Jun-23 16:00N 05°40' E 000°11'1 1.3
2018-Jun-23 15:30N 05°41' E 000°11'1 1.6
2018-Jun-23 15:00N 05°40' E 000°10'1 2.1
2018-Jun-23 14:30N 05°39' E 000°10'611.4
2018-Jun-23 14:00N 05°37' E 000°05'510.2
2018-Jun-23 13:30N 05°37' W 000°00'0 0.7
2018-Jun-23 13:00N 05°36' W 000°01'0 0.0
2018-Jun-23 12:30N 05°36' W 000°01'0 0.0
2018-Jun-23 12:00N 05°36' W 000°01'0 0.0
2018-Jun-23 11:30N 05°36' W 000°01'0 0.0
2018-Jun-23 11:00N 05°36' W 000°01'0 0.9
2018-Jun-23 10:30N 05°37' W 000°00'4 9.1
2018-Jun-23 10:00N 05°37' E 000°04'5 9.4
2018-Jun-23 09:30N 05°39' E 000°09'2 3.4
2018-Jun-23 09:00N 05°40' E 000°10'1 1.7
2018-Jun-23 08:30N 05°39' E 000°09'1 1.5
2018-Jun-23 08:00N 05°40' E 000°10'0 0.4
2018-Jun-23 07:30N 05°40' E 000°10'1 1.5
2018-Jun-23 07:00N 05°39' E 000°09'611.4
2018-Jun-23 06:30N 05°37' E 000°04'5 9.3
2018-Jun-23 06:01N 05°37' W 000°01'0 0.1
2018-Jun-23 05:30N 05°36' W 000°01'0 0.0
2018-Jun-23 05:00N 05°36' W 000°01'0 0.0
2018-Jun-23 04:30N 05°36' W 000°01'0 0.0
2018-Jun-23 04:00N 05°36' W 000°01'0 0.0
2018-Jun-23 03:30N 05°36' W 000°01'2 3.9
2018-Jun-23 03:00N 05°37' E 000°01'5 9.6
2018-Jun-23 02:30N 05°37' E 000°06'5 9.5
2018-Jun-23 02:00N 05°40' E 000°10'1 2.9
2018-Jun-23 01:30N 05°41' E 000°11'1 1.7
2018-Jun-23 01:00N 05°40' E 000°11'1 1.1
2018-Jun-23 00:30N 05°40' E 000°11'1 1.5
2018-Jun-23 00:00N 05°40' E 000°10'1 1.9
2018-Jun-22 23:30N 05°39' E 000°09'611.2
2018-Jun-22 23:00N 05°37' E 000°04'5 9.6
2018-Jun-22 22:31N 05°37' W 000°01'0 0.2
2018-Jun-22 22:00N 05°36' W 000°01'0 0.0
2018-Jun-22 21:30N 05°36' W 000°01'0 0.0
2018-Jun-22 21:00N 05°36' W 000°01'0 0.0
2018-Jun-22 20:30N 05°36' W 000°01'0 0.0
2018-Jun-22 20:00N 05°36' W 000°01'0 0.1
2018-Jun-22 19:30N 05°37' W 000°01'4 8.5
2018-Jun-22 19:00N 05°37' E 000°04'5 9.6
2018-Jun-22 18:29N 05°39' E 000°08'2 3.6
2018-Jun-22 18:00N 05°40' E 000°10'1 1.5
2018-Jun-22 17:30N 05°40' E 000°11'0 0.3
2018-Jun-22 17:00N 05°40' E 000°11'1 1.4
2018-Jun-22 16:30N 05°40' E 000°10'3 5.3
2018-Jun-22 16:00N 05°39' E 000°08'611.1
2018-Jun-22 15:30N 05°38' E 000°02'3 6.0
2018-Jun-22 15:00N 05°36' W 000°01'0 0.0
2018-Jun-22 14:30N 05°36' W 000°01'0 0.0
2018-Jun-22 14:00N 05°36' W 000°01'0 0.0
2018-Jun-22 13:30N 05°37' W 000°01'0 0.0
2018-Jun-22 13:00N 05°36' W 000°01'0 0.0
2018-Jun-22 12:30N 05°36' W 000°01'3 5.1
2018-Jun-22 12:00N 05°37' E 000°02'5 9.6
2018-Jun-22 11:30N 05°38' E 000°07'3 6.6
2018-Jun-22 11:00N 05°40' E 000°09'1 1.8
2018-Jun-22 10:30N 05°40' E 000°10'0 0.8
2018-Jun-22 10:00N 05°40' E 000°10'1 1.7
2018-Jun-22 09:30N 05°40' E 000°10'1 1.7
2018-Jun-22 09:00N 05°39' E 000°09'510.9
2018-Jun-22 08:30N 05°38' E 000°04'5 9.3
2018-Jun-22 08:01N 05°37' W 000°01'0 0.3
2018-Jun-22 07:30N 05°36' W 000°01'0 0.0
2018-Jun-22 07:00N 05°36' W 000°01'0 0.0
2018-Jun-22 06:30N 05°36' W 000°01'0 0.0
2018-Jun-22 06:00N 05°36' W 000°01'0 0.0
2018-Jun-22 05:30N 05°36' W 000°01'1 1.7
2018-Jun-22 05:00N 05°37' E 000°00'5 9.5
2018-Jun-22 04:30N 05°37' E 000°05'5 9.6
2018-Jun-22 04:00N 05°39' E 000°09'1 2.9
2018-Jun-22 03:30N 05°40' E 000°10'1 1.6
2018-Jun-22 03:01N 05°41' E 000°11'1 1.6
2018-Jun-22 02:30N 05°40' E 000°10'1 1.8
2018-Jun-22 02:00N 05°40' E 000°10'2 4.3
2018-Jun-22 01:30N 05°38' E 000°08'511.0
2018-Jun-22 01:00N 05°37' E 000°03'3 6.8
2018-Jun-22 00:30N 05°36' W 000°01'0 0.0
2018-Jun-22 00:00N 05°36' W 000°01'0 0.0
2018-Jun-21 23:30N 05°36' W 000°01'0 0.0
2018-Jun-21 23:00N 05°36' W 000°01'0 0.0
2018-Jun-21 22:30N 05°36' W 000°01'0 0.0
2018-Jun-21 22:00N 05°36' W 000°01'2 3.7
2018-Jun-21 21:30N 05°37' E 000°01'5 9.4
2018-Jun-21 21:00N 05°37' E 000°06'4 8.5
2018-Jun-21 20:30N 05°39' E 000°09'1 1.5
2018-Jun-21 20:00N 05°40' E 000°10'1 1.4
2018-Jun-21 19:30N 05°40' E 000°11'0 1.0
2018-Jun-21 19:00N 05°40' E 000°10'1 1.3
2018-Jun-21 18:30N 05°40' E 000°10'2 4.5
2018-Jun-21 17:58N 05°38' E 000°08'511.2
2018-Jun-21 17:30N 05°38' E 000°02'3 6.8
2018-Jun-21 17:00N 05°36' W 000°01'0 0.0
2018-Jun-21 16:30N 05°36' W 000°01'0 0.0
2018-Jun-21 16:00N 05°36' W 000°01'0 0.0
2018-Jun-21 15:30N 05°36' W 000°01'0 0.0
2018-Jun-21 15:00N 05°36' W 000°01'0 0.0
2018-Jun-21 14:30N 05°36' W 000°01'1 2.3
2018-Jun-21 14:00N 05°37' E 000°00'5 9.8
2018-Jun-21 13:30N 05°37' E 000°05'5 9.7
2018-Jun-21 13:00N 05°39' E 000°10'1 2.5
2018-Jun-21 12:30N 05°40' E 000°11'1 1.6
2018-Jun-21 12:01N 05°40' E 000°11'1 1.9
2018-Jun-21 11:29N 05°40' E 000°11'1 1.7
2018-Jun-21 11:00N 05°40' E 000°10'1 2.2
2018-Jun-21 10:30N 05°39' E 000°09'611.7
2018-Jun-21 10:00N 05°37' E 000°03'4 7.0
2018-Jun-21 09:30N 05°37' W 000°00'1 1.0
2018-Jun-21 09:00N 05°36' W 000°01'0 0.0
2018-Jun-21 08:30N 05°36' W 000°01'0 0.0
2018-Jun-21 08:00N 05°36' W 000°01'0 0.0
2018-Jun-21 07:30N 05°36' W 000°01'0 0.0
2018-Jun-21 07:00N 05°36' W 000°01'0 0.1
2018-Jun-21 06:30N 05°37' W 000°01'4 8.5
2018-Jun-21 06:00N 05°37' E 000°03'5 9.5
2018-Jun-21 05:30N 05°38' E 000°08'2 4.4
2018-Jun-21 05:00N 05°39' E 000°10'1 1.5
2018-Jun-21 04:30N 05°40' E 000°11'0 0.9
2018-Jun-21 04:00N 05°40' E 000°11'1 1.4
2018-Jun-21 03:30N 05°40' E 000°10'1 1.7
2018-Jun-21 03:00N 05°39' E 000°09'4 7.4
2018-Jun-21 02:30N 05°38' E 000°06'611.2
2018-Jun-21 02:00N 05°37' E 000°01'2 3.1
2018-Jun-21 01:30N 05°36' W 000°01'0 0.0
2018-Jun-21 01:00N 05°37' W 000°01'0 0.0
2018-Jun-21 00:30N 05°36' W 000°01'0 0.0
2018-Jun-21 00:00N 05°36' W 000°01'0 0.0
2018-Jun-20 23:30N 05°36' W 000°01'0 0.0
2018-Jun-20 23:00N 05°36' W 000°01'3 5.2
2018-Jun-20 22:30N 05°37' E 000°02'5 9.1
2018-Jun-20 22:00N 05°37' E 000°06'4 7.9
2018-Jun-20 21:30N 05°40' E 000°10'1 1.6
2018-Jun-20 21:00N 05°40' E 000°10'0 0.9
2018-Jun-20 20:30N 05°40' E 000°11'1 1.8
2018-Jun-20 20:00N 05°40' E 000°10'2 4.3
2018-Jun-20 19:30N 05°38' E 000°08'611.9
2018-Jun-20 19:00N 05°36' E 000°03'2 3.2
2018-Jun-20 18:30N 05°36' E 000°01'0 0.0
2018-Jun-20 18:00N 05°36' E 000°01'0 0.0
2018-Jun-20 17:30N 05°36' E 000°01'0 0.0
2018-Jun-20 17:00N 05°36' E 000°01'0 0.0
2018-Jun-20 16:30N 05°36' E 000°01'0 0.0
2018-Jun-20 15:57N 05°36' E 000°01'0 0.0
2018-Jun-20 15:30N 05°36' E 000°01'0 0.0
2018-Jun-20 15:00N 05°36' E 000°01'0 0.0
2018-Jun-20 14:30N 05°36' E 000°01'0 0.0
2018-Jun-20 14:00N 05°36' E 000°01'0 0.0
2018-Jun-20 13:30N 05°36' E 000°01'0 0.0
2018-Jun-20 13:00N 05°36' E 000°01'0 0.0
2018-Jun-20 12:30N 05°36' E 000°01'0 0.0
2018-Jun-20 12:00N 05°36' E 000°01'0 0.0
2018-Jun-20 11:30N 05°36' E 000°01'0 0.0
2018-Jun-20 10:57N 05°36' E 000°01'0 0.0
2018-Jun-20 10:30N 05°35' E 000°01'0 0.0
2018-Jun-20 10:00N 05°35' E 000°01'0 0.0
2018-Jun-20 09:30N 05°35' E 000°01'0 0.1
2018-Jun-20 09:00N 05°35' E 000°01'0 0.1
2018-Jun-20 08:30N 05°35' E 000°01'0 0.0
2018-Jun-20 08:00N 05°35' E 000°01'0 0.0
2018-Jun-20 07:30N 05°35' E 000°01'0 0.0
2018-Jun-20 07:00N 05°35' E 000°01'0 0.6
2018-Jun-20 06:29N 05°36' E 000°01'2 3.8
2018-Jun-20 06:00N 05°37' W 000°01'0 0.1
2018-Jun-20 05:30N 05°36' W 000°01'0 0.0
2018-Jun-20 05:00N 05°36' W 000°01'0 0.0
2018-Jun-20 04:30N 05°36' W 000°01'0 0.0
2018-Jun-20 04:00N 05°36' W 000°01'0 0.0
2018-Jun-20 03:30N 05°36' W 000°01'1 1.6
2018-Jun-20 03:00N 05°37' W 000°00'4 9.0
2018-Jun-20 02:30N 05°37' E 000°04'4 8.6
2018-Jun-20 02:00N 05°39' E 000°09'2 3.7
2018-Jun-20 01:29N 05°40' E 000°10'1 1.6
2018-Jun-20 01:00N 05°40' E 000°11'1 1.3
2018-Jun-20 00:31N 05°40' E 000°11'1 1.9
2018-Jun-20 00:00N 05°40' E 000°11'1 2.6
2018-Jun-19 23:30N 05°39' E 000°09'3 6.5
2018-Jun-19 23:00N 05°38' E 000°07'612.1
2018-Jun-19 22:30N 05°37' E 000°01'1 2.8
2018-Jun-19 22:00N 05°36' W 000°01'0 0.0
2018-Jun-19 21:30N 05°36' W 000°01'0 0.0
2018-Jun-19 21:00N 05°36' W 000°01'0 0.0
2018-Jun-19 20:30N 05°36' W 000°01'0 0.0
2018-Jun-19 20:00N 05°36' W 000°01'0 0.0
2018-Jun-19 19:30N 05°36' W 000°01'0 0.0
2018-Jun-19 19:00N 05°36' W 000°01'3 5.3
2018-Jun-19 18:30N 05°37' E 000°02'4 8.3
2018-Jun-19 18:00N 05°38' E 000°06'4 8.1
2018-Jun-19 17:30N 05°39' E 000°10'1 1.4
2018-Jun-19 16:59N 05°40' E 000°10'0 0.9
2018-Jun-19 16:30N 05°40' E 000°11'1 1.3
2018-Jun-19 16:00N 05°40' E 000°11'0 0.8
2018-Jun-19 15:30N 05°40' E 000°11'1 2.1
2018-Jun-19 15:00N 05°40' E 000°10'3 5.2
2018-Jun-19 14:29N 05°38' E 000°08'611.9
2018-Jun-19 14:00N 05°37' E 000°02'3 5.7
2018-Jun-19 13:30N 05°36' W 000°01'0 0.0
2018-Jun-19 13:00N 05°36' W 000°01'0 0.0
2018-Jun-19 12:30N 05°36' W 000°01'0 0.0
2018-Jun-19 12:00N 05°36' W 000°01'0 0.0
2018-Jun-19 11:30N 05°36' W 000°01'0 0.0
2018-Jun-19 11:00N 05°36' W 000°01'1 1.9
2018-Jun-19 10:30N 05°37' E 000°00'5 9.1
2018-Jun-19 10:00N 05°37' E 000°05'4 8.9
2018-Jun-19 09:30N 05°39' E 000°09'2 3.0
2018-Jun-19 08:59N 05°40' E 000°10'1 1.4
2018-Jun-19 08:31N 05°40' E 000°11'1 1.6
2018-Jun-19 08:00N 05°40' E 000°10'1 1.7
2018-Jun-19 07:30N 05°39' E 000°09'0 0.8
2018-Jun-19 07:00N 05°39' E 000°10'0 0.1
2018-Jun-19 06:27N 05°40' E 000°10'0 0.0
2018-Jun-19 06:00N 05°40' E 000°10'0 0.0
2018-Jun-19 05:30N 05°40' E 000°10'0 0.0
2018-Jun-19 05:00N 05°40' E 000°10'0 0.0
2018-Jun-19 04:30N 05°39' E 000°10'0 0.0
2018-Jun-19 04:00N 05°39' E 000°10'0 0.0
2018-Jun-19 03:30N 05°40' E 000°10'0 0.0
2018-Jun-19 03:00N 05°40' E 000°10'0 0.0
2018-Jun-19 02:30N 05°39' E 000°10'0 0.0
2018-Jun-19 02:00N 05°39' E 000°10'0 0.0
2018-Jun-19 01:30N 05°40' E 000°10'3 5.9
2018-Jun-19 01:00N 05°38' E 000°07'611.9
2018-Jun-19 00:29N 05°37' E 000°01'2 3.6
2018-Jun-19 00:00N 05°37' W 000°01'0 0.0
2018-Jun-18 23:30N 05°37' W 000°01'0 0.0
2018-Jun-18 23:00N 05°37' W 000°01'0 0.0
2018-Jun-18 22:30N 05°37' W 000°01'0 0.0
2018-Jun-18 22:00N 05°37' W 000°01'0 0.1
2018-Jun-18 21:30N 05°37' W 000°01'0 0.1
2018-Jun-18 21:00N 05°37' W 000°01'0 0.1
2018-Jun-18 20:30N 05°36' W 000°01'3 5.6
2018-Jun-18 20:00N 05°38' E 000°02'4 8.1
2018-Jun-18 19:30N 05°38' E 000°06'4 7.5
2018-Jun-18 18:59N 05°39' E 000°09'0 1.0
2018-Jun-18 18:30N 05°39' E 000°10'0 1.0
2018-Jun-18 18:00N 05°40' E 000°10'1 1.2
2018-Jun-18 17:30N 05°40' E 000°11'0 0.5
2018-Jun-18 17:00N 05°40' E 000°11'1 2.0
2018-Jun-18 16:30N 05°40' E 000°10'5 9.6
2018-Jun-18 16:00N 05°37' E 000°05'611.7
2018-Jun-18 15:30N 05°37' W 000°00'0 0.9
2018-Jun-18 15:00N 05°36' W 000°01'0 0.0
2018-Jun-18 14:30N 05°36' W 000°01'0 0.0
2018-Jun-18 14:00N 05°37' W 000°01'0 0.0
2018-Jun-18 13:30N 05°36' W 000°01'0 0.0
2018-Jun-18 13:00N 05°37' W 000°01'0 0.2
2018-Jun-18 12:30N 05°37' W 000°01'4 8.1
2018-Jun-18 12:00N 05°37' E 000°03'4 8.6
2018-Jun-18 11:30N 05°38' E 000°08'3 5.6
2018-Jun-18 11:00N 05°40' E 000°10'1 1.2
2018-Jun-18 10:30N 05°40' E 000°11'1 1.0
2018-Jun-18 10:00N 05°40' E 000°11'1 1.9
2018-Jun-18 09:30N 05°40' E 000°10'1 2.0
2018-Jun-18 09:00N 05°39' E 000°09'4 8.3
2018-Jun-18 08:30N 05°38' E 000°05'611.2
2018-Jun-18 08:00N 05°37' W 000°00'1 1.5
2018-Jun-18 07:30N 05°36' W 000°01'0 0.1
2018-Jun-18 07:00N 05°36' W 000°01'0 0.0
2018-Jun-18 06:30N 05°36' W 000°01'0 0.0
2018-Jun-18 06:00N 05°36' W 000°01'0 0.0
2018-Jun-18 05:30N 05°36' W 000°01'0 0.7
2018-Jun-18 05:00N 05°37' W 000°00'4 8.0
2018-Jun-18 04:30N 05°37' E 000°04'4 8.5
2018-Jun-18 04:01N 05°38' E 000°08'4 7.2
2018-Jun-18 03:30N 05°40' E 000°11'0 0.8
2018-Jun-18 03:00N 05°40' E 000°11'0 0.3
2018-Jun-18 02:30N 05°40' E 000°11'0 0.5
2018-Jun-18 02:00N 05°40' E 000°11'1 1.7
2018-Jun-18 01:30N 05°40' E 000°10'1 2.1
2018-Jun-18 01:00N 05°39' E 000°10'5 9.4
2018-Jun-18 00:30N 05°37' E 000°05'510.8
2018-Jun-18 00:00N 05°37' W 000°00'1 1.1
2018-Jun-17 23:30N 05°36' W 000°01'0 0.0
2018-Jun-17 23:00N 05°36' W 000°01'0 0.0
2018-Jun-17 22:30N 05°36' W 000°01'0 0.0
2018-Jun-17 22:00N 05°36' W 000°01'0 0.0
2018-Jun-17 21:30N 05°36' W 000°01'0 0.0
2018-Jun-17 21:00N 05°36' W 000°01'0 0.0
2018-Jun-17 20:30N 05°36' W 000°01'1 1.2
2018-Jun-17 19:59N 05°37' W 000°00'4 8.2
2018-Jun-17 19:30N 05°37' E 000°04'4 8.8
2018-Jun-17 19:00N 05°39' E 000°08'2 3.8
2018-Jun-17 18:29N 05°40' E 000°10'1 1.1
2018-Jun-17 18:00N 05°40' E 000°10'1 1.1
2018-Jun-17 17:30N 05°40' E 000°11'0 0.3
2018-Jun-17 17:00N 05°40' E 000°10'1 1.8
2018-Jun-17 16:30N 05°40' E 000°10'4 8.9
2018-Jun-17 16:00N 05°38' E 000°06'611.5
2018-Jun-17 15:30N 05°37' E 000°00'1 2.0
2018-Jun-17 15:00N 05°36' W 000°01'0 0.0
2018-Jun-17 14:30N 05°36' W 000°01'0 0.0
2018-Jun-17 14:00N 05°36' W 000°01'0 0.0
2018-Jun-17 13:30N 05°36' W 000°01'0 0.0
2018-Jun-17 13:00N 05°37' W 000°01'1 2.5
2018-Jun-17 12:30N 05°37' E 000°00'5 9.3
2018-Jun-17 12:00N 05°37' E 000°05'5 9.2
2018-Jun-17 11:30N 05°39' E 000°09'1 1.7
2018-Jun-17 11:00N 05°40' E 000°10'1 1.4
2018-Jun-17 10:29N 05°40' E 000°11'0 0.4
2018-Jun-17 10:00N 05°40' E 000°11'1 1.8
2018-Jun-17 09:29N 05°40' E 000°10'1 2.1
2018-Jun-17 09:00N 05°39' E 000°09'611.3
2018-Jun-17 08:30N 05°37' E 000°04'4 8.8
2018-Jun-17 08:00N 05°37' W 000°01'0 0.1
2018-Jun-17 07:30N 05°36' W 000°01'0 0.0
2018-Jun-17 07:00N 05°37' W 000°01'0 0.0
2018-Jun-17 06:30N 05°37' W 000°01'0 0.0
2018-Jun-17 06:00N 05°36' W 000°01'0 0.0
2018-Jun-17 05:30N 05°36' W 000°01'0 0.1
2018-Jun-17 05:00N 05°37' W 000°01'3 5.7
2018-Jun-17 04:30N 05°37' E 000°02'5 8.9
2018-Jun-17 03:59N 05°38' E 000°07'3 5.9
2018-Jun-17 03:28N 05°40' E 000°09'1 1.7
2018-Jun-17 03:00N 05°40' E 000°10'1 1.7
2018-Jun-17 02:29N 05°40' E 000°11'0 0.7
2018-Jun-17 02:00N 05°40' E 000°10'1 2.0
2018-Jun-17 01:30N 05°40' E 000°10'2 3.9
2018-Jun-17 00:59N 05°38' E 000°08'511.0
2018-Jun-17 00:30N 05°37' E 000°03'4 7.8
2018-Jun-17 00:00N 05°37' W 000°01'0 0.0
2018-Jun-16 23:30N 05°37' W 000°01'0 0.0
2018-Jun-16 23:00N 05°37' W 000°01'0 0.0
2018-Jun-16 22:30N 05°37' W 000°01'0 0.0
2018-Jun-16 22:00N 05°37' W 000°01'0 0.0
2018-Jun-16 21:30N 05°37' W 000°01'0 0.0
2018-Jun-16 21:00N 05°37' W 000°01'0 0.0
2018-Jun-16 20:30N 05°37' W 000°01'0 0.0
2018-Jun-16 20:00N 05°37' W 000°01'0 0.2
2018-Jun-16 19:30N 05°37' W 000°01'4 7.5
2018-Jun-16 19:00N 05°37' E 000°03'5 9.5
2018-Jun-16 18:30N 05°38' E 000°08'3 6.7
2018-Jun-16 18:00N 05°40' E 000°11'0 0.3
2018-Jun-16 17:30N 05°40' E 000°11'1 1.6
2018-Jun-16 17:00N 05°39' E 000°10'1 1.1
2018-Jun-16 16:30N 05°40' E 000°10'0 0.7
2018-Jun-16 16:00N 05°40' E 000°10'1 1.4
2018-Jun-16 15:30N 05°39' E 000°10'5 9.6
2018-Jun-16 15:00N 05°37' E 000°05'510.4
2018-Jun-16 14:30N 05°37' W 000°00'1 1.3
2018-Jun-16 14:00N 05°36' W 000°01'0 0.0
2018-Jun-16 13:30N 05°36' W 000°01'0 0.0
2018-Jun-16 13:00N 05°37' W 000°01'0 0.0
2018-Jun-16 12:30N 05°37' W 000°01'0 0.0
2018-Jun-16 12:00N 05°37' W 000°01'0 0.0
2018-Jun-16 11:30N 05°37' W 000°01'0 0.0
2018-Jun-16 11:00N 05°36' W 000°01'2 3.7
2018-Jun-16 10:30N 05°37' E 000°01'5 9.7
2018-Jun-16 10:00N 05°38' E 000°06'4 7.8
2018-Jun-16 09:30N 05°39' E 000°09'1 1.3
2018-Jun-16 09:00N 05°40' E 000°10'1 1.5
2018-Jun-16 08:30N 05°40' E 000°10'0 0.4
2018-Jun-16 08:00N 05°40' E 000°10'1 1.4
2018-Jun-16 07:30N 05°40' E 000°10'3 5.3
2018-Jun-16 06:59N 05°39' E 000°07'511.1
2018-Jun-16 06:30N 05°37' E 000°02'3 5.9
2018-Jun-16 06:00N 05°36' W 000°01'0 0.0
2018-Jun-16 05:30N 05°36' W 000°01'0 0.0
2018-Jun-16 05:00N 05°36' W 000°01'0 0.0
2018-Jun-16 04:30N 05°36' W 000°01'0 0.0
2018-Jun-16 04:00N 05°36' W 000°01'0 0.0
2018-Jun-16 03:30N 05°36' W 000°01'0 0.0
2018-Jun-16 03:00N 05°36' W 000°01'0 0.0
2018-Jun-16 02:30N 05°36' W 000°01'0 0.0
2018-Jun-16 02:00N 05°36' W 000°01'0 0.0
2018-Jun-16 01:30N 05°36' W 000°01'0 0.0
2018-Jun-16 01:00N 05°37' W 000°01'3 4.8
2018-Jun-16 00:29N 05°37' E 000°02'5 9.5
2018-Jun-16 00:00N 05°38' E 000°06'4 8.6
2018-Jun-15 23:30N 05°40' E 000°10'0 0.8
2018-Jun-15 22:59N 05°40' E 000°10'1 1.3
2018-Jun-15 22:30N 05°40' E 000°10'1 1.6
2018-Jun-15 22:01N 05°39' E 000°10'11 2.0
2018-Jun-15 16:37N 05°37' W 000°01'0 1.3
2018-Jun-15 16:30N 05°37' W 000°01'2 2.9
2018-Jun-15 15:59N 05°36' E 000°01'1 1.5
2018-Jun-15 15:30N 05°35' E 000°01'0 0.0
2018-Jun-15 15:00N 05°35' E 000°01'0 0.0
2018-Jun-15 14:30N 05°35' E 000°01'0 0.0
2018-Jun-15 14:00N 05°35' E 000°01'0 0.0
2018-Jun-15 13:30N 05°35' E 000°01'0 0.0
2018-Jun-15 13:00N 05°35' E 000°01'0 0.0
2018-Jun-15 12:30N 05°35' E 000°01'0 0.0
2018-Jun-15 12:00N 05°35' E 000°01'0 0.1
2018-Jun-15 11:30N 05°35' E 000°01'0 0.0
2018-Jun-15 11:00N 05°35' E 000°01'0 0.0
2018-Jun-15 10:30N 05°35' E 000°01'0 0.0
2018-Jun-15 10:00N 05°35' E 000°01'0 0.0
2018-Jun-15 09:30N 05°35' E 000°01'0 0.0
2018-Jun-15 09:00N 05°35' E 000°01'0 0.0
2018-Jun-15 08:30N 05°35' E 000°01'0 0.0
2018-Jun-15 08:00N 05°35' E 000°01'0 0.0
2018-Jun-15 07:30N 05°35' E 000°01'0 0.0
2018-Jun-15 07:00N 05°35' E 000°01'0 0.0
2018-Jun-15 06:24N 05°35' E 000°01'0 0.0
2018-Jun-15 06:00N 05°35' E 000°01'0 0.0
2018-Jun-15 05:30N 05°35' E 000°01'0 0.0
2018-Jun-15 05:00N 05°35' E 000°01'0 0.0
2018-Jun-15 04:30N 05°35' E 000°01'0 0.0
2018-Jun-15 04:00N 05°35' E 000°01'0 0.0
2018-Jun-15 03:30N 05°35' E 000°01'0 0.0
2018-Jun-15 03:00N 05°35' E 000°01'0 0.0
2018-Jun-15 02:30N 05°35' E 000°01'  

Dump ship's entire track history